sensor_id;sensor_type;location;lat;lon;timestamp;P1;durP1;ratioP1;P2;durP2;ratioP2
3563;SDS011;1796;52.388;13.096;2023-07-24T00:01:12;3.97;;;3.60;;
3563;SDS011;1796;52.388;13.096;2023-07-24T00:03:41;10.60;;;3.30;;
3563;SDS011;1796;52.388;13.096;2023-07-24T00:06:07;3.73;;;3.43;;
3563;SDS011;1796;52.388;13.096;2023-07-24T00:08:34;5.33;;;3.13;;
3563;SDS011;1796;52.388;13.096;2023-07-24T00:11:01;5.20;;;2.90;;
3563;SDS011;1796;52.388;13.096;2023-07-24T00:13:29;3.60;;;3.00;;
3563;SDS011;1796;52.388;13.096;2023-07-24T00:15:56;4.70;;;3.17;;
3563;SDS011;1796;52.388;13.096;2023-07-24T00:18:23;3.63;;;3.33;;
3563;SDS011;1796;52.388;13.096;2023-07-24T00:20:52;3.67;;;3.10;;
3563;SDS011;1796;52.388;13.096;2023-07-24T00:23:18;4.13;;;3.00;;
3563;SDS011;1796;52.388;13.096;2023-07-24T00:25:45;8.47;;;3.40;;
3563;SDS011;1796;52.388;13.096;2023-07-24T00:28:12;3.30;;;3.10;;
3563;SDS011;1796;52.388;13.096;2023-07-24T00:30:39;5.77;;;3.43;;
3563;SDS011;1796;52.388;13.096;2023-07-24T00:33:06;2.80;;;2.60;;
3563;SDS011;1796;52.388;13.096;2023-07-24T00:35:33;3.30;;;3.00;;
3563;SDS011;1796;52.388;13.096;2023-07-24T00:38:01;6.00;;;3.00;;
3563;SDS011;1796;52.388;13.096;2023-07-24T00:40:28;3.40;;;3.10;;
3563;SDS011;1796;52.388;13.096;2023-07-24T00:42:55;15.20;;;4.00;;
3563;SDS011;1796;52.388;13.096;2023-07-24T00:45:22;6.30;;;5.70;;
3563;SDS011;1796;52.388;13.096;2023-07-24T00:47:49;5.63;;;4.03;;
3563;SDS011;1796;52.388;13.096;2023-07-24T00:50:17;3.43;;;3.10;;
3563;SDS011;1796;52.388;13.096;2023-07-24T00:52:45;3.77;;;3.40;;
3563;SDS011;1796;52.388;13.096;2023-07-24T00:55:13;4.87;;;3.07;;
3563;SDS011;1796;52.388;13.096;2023-07-24T00:57:42;3.53;;;3.23;;
3563;SDS011;1796;52.388;13.096;2023-07-24T01:00:10;3.87;;;3.17;;
3563;SDS011;1796;52.388;13.096;2023-07-24T01:02:37;3.00;;;2.80;;
3563;SDS011;1796;52.388;13.096;2023-07-24T01:05:04;3.37;;;3.07;;
3563;SDS011;1796;52.388;13.096;2023-07-24T01:07:32;5.50;;;3.13;;
3563;SDS011;1796;52.388;13.096;2023-07-24T01:09:59;6.50;;;3.20;;
3563;SDS011;1796;52.388;13.096;2023-07-24T01:12:30;4.70;;;3.03;;
3563;SDS011;1796;52.388;13.096;2023-07-24T01:15:03;4.17;;;2.80;;
3563;SDS011;1796;52.388;13.096;2023-07-24T01:17:34;5.53;;;2.67;;
3563;SDS011;1796;52.388;13.096;2023-07-24T01:20:08;3.30;;;3.00;;
3563;SDS011;1796;52.388;13.096;2023-07-24T01:22:38;2.90;;;2.70;;
3563;SDS011;1796;52.388;13.096;2023-07-24T01:25:11;3.77;;;2.30;;
3563;SDS011;1796;52.388;13.096;2023-07-24T01:27:46;9.03;;;3.10;;
3563;SDS011;1796;52.388;13.096;2023-07-24T01:30:13;3.70;;;2.37;;
3563;SDS011;1796;52.388;13.096;2023-07-24T01:32:42;2.93;;;2.70;;
3563;SDS011;1796;52.388;13.096;2023-07-24T01:35:09;4.33;;;2.70;;
3563;SDS011;1796;52.388;13.096;2023-07-24T01:37:36;4.50;;;2.10;;
3563;SDS011;1796;52.388;13.096;2023-07-24T01:40:06;4.97;;;2.50;;
3563;SDS011;1796;52.388;13.096;2023-07-24T01:42:34;2.70;;;2.50;;
3563;SDS011;1796;52.388;13.096;2023-07-24T01:45:03;3.57;;;3.27;;
3563;SDS011;1796;52.388;13.096;2023-07-24T01:47:32;2.83;;;2.63;;
3563;SDS011;1796;52.388;13.096;2023-07-24T01:49:59;2.90;;;2.60;;
3563;SDS011;1796;52.388;13.096;2023-07-24T01:52:26;2.57;;;2.37;;
3563;SDS011;1796;52.388;13.096;2023-07-24T01:54:53;2.60;;;2.50;;
3563;SDS011;1796;52.388;13.096;2023-07-24T01:57:20;3.30;;;3.00;;
3563;SDS011;1796;52.388;13.096;2023-07-24T01:59:46;7.20;;;2.97;;
3563;SDS011;1796;52.388;13.096;2023-07-24T02:02:15;2.97;;;2.67;;
3563;SDS011;1796;52.388;13.096;2023-07-24T02:04:42;3.50;;;3.20;;
3563;SDS011;1796;52.388;13.096;2023-07-24T02:07:09;3.13;;;2.83;;
3563;SDS011;1796;52.388;13.096;2023-07-24T02:09:36;4.53;;;3.13;;
3563;SDS011;1796;52.388;13.096;2023-07-24T02:12:03;3.03;;;2.83;;
3563;SDS011;1796;52.388;13.096;2023-07-24T02:14:30;2.37;;;2.27;;
3563;SDS011;1796;52.388;13.096;2023-07-24T02:16:57;3.13;;;2.53;;
3563;SDS011;1796;52.388;13.096;2023-07-24T02:19:25;2.80;;;2.60;;
3563;SDS011;1796;52.388;13.096;2023-07-24T02:21:52;2.63;;;2.43;;
3563;SDS011;1796;52.388;13.096;2023-07-24T02:24:19;2.67;;;2.47;;
3563;SDS011;1796;52.388;13.096;2023-07-24T02:26:46;2.67;;;2.47;;
3563;SDS011;1796;52.388;13.096;2023-07-24T02:29:13;2.43;;;2.27;;
3563;SDS011;1796;52.388;13.096;2023-07-24T02:31:40;2.77;;;2.40;;
3563;SDS011;1796;52.388;13.096;2023-07-24T02:34:07;3.33;;;2.60;;
3563;SDS011;1796;52.388;13.096;2023-07-24T02:36:35;4.30;;;2.63;;
3563;SDS011;1796;52.388;13.096;2023-07-24T02:39:03;5.03;;;2.90;;
3563;SDS011;1796;52.388;13.096;2023-07-24T02:41:29;2.57;;;2.13;;
3563;SDS011;1796;52.388;13.096;2023-07-24T02:43:56;2.70;;;2.50;;
3563;SDS011;1796;52.388;13.096;2023-07-24T02:46:23;2.47;;;2.27;;
3563;SDS011;1796;52.388;13.096;2023-07-24T02:48:50;2.50;;;2.20;;
3563;SDS011;1796;52.388;13.096;2023-07-24T02:51:17;3.70;;;1.90;;
3563;SDS011;1796;52.388;13.096;2023-07-24T02:53:45;2.57;;;2.37;;
3563;SDS011;1796;52.388;13.096;2023-07-24T02:56:12;2.13;;;2.03;;
3563;SDS011;1796;52.388;13.096;2023-07-24T02:58:39;3.17;;;1.90;;
3563;SDS011;1796;52.388;13.096;2023-07-24T03:01:06;2.40;;;2.17;;
3563;SDS011;1796;52.388;13.096;2023-07-24T03:03:34;10.80;;;2.20;;
3563;SDS011;1796;52.388;13.096;2023-07-24T03:06:01;5.30;;;2.37;;
3563;SDS011;1796;52.388;13.096;2023-07-24T03:08:28;1.83;;;1.73;;
3563;SDS011;1796;52.388;13.096;2023-07-24T03:10:56;2.53;;;2.33;;
3563;SDS011;1796;52.388;13.096;2023-07-24T03:13:23;2.40;;;1.77;;
3563;SDS011;1796;52.388;13.096;2023-07-24T03:15:53;1.93;;;1.83;;
3563;SDS011;1796;52.388;13.096;2023-07-24T03:18:21;2.17;;;1.97;;
3563;SDS011;1796;52.388;13.096;2023-07-24T03:20:48;1.67;;;1.57;;
3563;SDS011;1796;52.388;13.096;2023-07-24T03:23:15;3.50;;;1.80;;
3563;SDS011;1796;52.388;13.096;2023-07-24T03:25:42;1.50;;;1.50;;
3563;SDS011;1796;52.388;13.096;2023-07-24T03:28:11;2.33;;;2.13;;
3563;SDS011;1796;52.388;13.096;2023-07-24T03:30:37;2.50;;;1.93;;
3563;SDS011;1796;52.388;13.096;2023-07-24T03:33:04;2.17;;;1.80;;
3563;SDS011;1796;52.388;13.096;2023-07-24T03:35:32;1.70;;;1.60;;
3563;SDS011;1796;52.388;13.096;2023-07-24T03:37:59;1.73;;;1.50;;
3563;SDS011;1796;52.388;13.096;2023-07-24T03:40:26;1.53;;;1.53;;
3563;SDS011;1796;52.388;13.096;2023-07-24T03:42:53;9.70;;;1.83;;
3563;SDS011;1796;52.388;13.096;2023-07-24T03:45:21;1.90;;;1.80;;
3563;SDS011;1796;52.388;13.096;2023-07-24T03:47:48;10.60;;;1.47;;
3563;SDS011;1796;52.388;13.096;2023-07-24T03:50:16;3.23;;;1.90;;
3563;SDS011;1796;52.388;13.096;2023-07-24T03:52:43;2.07;;;1.33;;
3563;SDS011;1796;52.388;13.096;2023-07-24T03:55:09;1.67;;;1.57;;
3563;SDS011;1796;52.388;13.096;2023-07-24T03:57:36;1.53;;;1.43;;
3563;SDS011;1796;52.388;13.096;2023-07-24T04:00:04;2.40;;;1.40;;
3563;SDS011;1796;52.388;13.096;2023-07-24T04:02:33;1.13;;;1.10;;
3563;SDS011;1796;52.388;13.096;2023-07-24T04:05:00;1.23;;;1.23;;
3563;SDS011;1796;52.388;13.096;2023-07-24T04:07:27;2.03;;;1.20;;
3563;SDS011;1796;52.388;13.096;2023-07-24T04:09:54;2.27;;;1.50;;
3563;SDS011;1796;52.388;13.096;2023-07-24T04:12:21;1.50;;;1.40;;
3563;SDS011;1796;52.388;13.096;2023-07-24T04:14:47;1.90;;;1.33;;
3563;SDS011;1796;52.388;13.096;2023-07-24T04:17:15;1.20;;;1.20;;
3563;SDS011;1796;52.388;13.096;2023-07-24T04:19:43;1.53;;;1.43;;
3563;SDS011;1796;52.388;13.096;2023-07-24T04:22:10;1.43;;;1.33;;
3563;SDS011;1796;52.388;13.096;2023-07-24T04:24:37;1.20;;;1.17;;
3563;SDS011;1796;52.388;13.096;2023-07-24T04:27:04;1.27;;;1.20;;
3563;SDS011;1796;52.388;13.096;2023-07-24T04:29:31;3.27;;;1.50;;
3563;SDS011;1796;52.388;13.096;2023-07-24T04:31:58;1.47;;;1.20;;
3563;SDS011;1796;52.388;13.096;2023-07-24T04:34:25;6.07;;;1.17;;
3563;SDS011;1796;52.388;13.096;2023-07-24T04:36:53;2.40;;;1.20;;
3563;SDS011;1796;52.388;13.096;2023-07-24T04:39:20;2.80;;;1.37;;
3563;SDS011;1796;52.388;13.096;2023-07-24T04:41:47;1.37;;;1.37;;
3563;SDS011;1796;52.388;13.096;2023-07-24T04:44:13;1.57;;;1.47;;
3563;SDS011;1796;52.388;13.096;2023-07-24T04:46:40;1.43;;;1.33;;
3563;SDS011;1796;52.388;13.096;2023-07-24T04:49:07;1.30;;;1.20;;
3563;SDS011;1796;52.388;13.096;2023-07-24T04:51:34;1.37;;;1.30;;
3563;SDS011;1796;52.388;13.096;2023-07-24T04:54:02;1.50;;;1.40;;
3563;SDS011;1796;52.388;13.096;2023-07-24T04:56:29;2.30;;;1.50;;
3563;SDS011;1796;52.388;13.096;2023-07-24T04:58:56;1.10;;;1.10;;
3563;SDS011;1796;52.388;13.096;2023-07-24T05:01:23;1.20;;;1.20;;
3563;SDS011;1796;52.388;13.096;2023-07-24T05:03:49;2.83;;;1.43;;
3563;SDS011;1796;52.388;13.096;2023-07-24T05:06:17;1.47;;;1.43;;
3563;SDS011;1796;52.388;13.096;2023-07-24T05:08:44;1.43;;;1.33;;
3563;SDS011;1796;52.388;13.096;2023-07-24T05:11:12;1.30;;;1.30;;
3563;SDS011;1796;52.388;13.096;2023-07-24T05:13:39;1.30;;;1.20;;
3563;SDS011;1796;52.388;13.096;2023-07-24T05:16:06;4.80;;;1.20;;
3563;SDS011;1796;52.388;13.096;2023-07-24T05:18:33;1.20;;;1.20;;
3563;SDS011;1796;52.388;13.096;2023-07-24T05:21:00;3.50;;;1.40;;
3563;SDS011;1796;52.388;13.096;2023-07-24T05:23:26;3.13;;;1.50;;
3563;SDS011;1796;52.388;13.096;2023-07-24T05:25:56;2.47;;;1.13;;
3563;SDS011;1796;52.388;13.096;2023-07-24T05:28:25;1.33;;;1.23;;
3563;SDS011;1796;52.388;13.096;2023-07-24T05:30:52;1.40;;;1.40;;
3563;SDS011;1796;52.388;13.096;2023-07-24T05:33:19;1.40;;;1.30;;
3563;SDS011;1796;52.388;13.096;2023-07-24T05:35:47;1.63;;;1.50;;
3563;SDS011;1796;52.388;13.096;2023-07-24T05:38:14;12.63;;;1.50;;
3563;SDS011;1796;52.388;13.096;2023-07-24T05:40:41;1.43;;;1.23;;
3563;SDS011;1796;52.388;13.096;2023-07-24T05:43:08;1.30;;;1.30;;
3563;SDS011;1796;52.388;13.096;2023-07-24T05:45:36;1.43;;;1.40;;
3563;SDS011;1796;52.388;13.096;2023-07-24T05:48:03;2.07;;;1.40;;
3563;SDS011;1796;52.388;13.096;2023-07-24T05:50:30;1.47;;;1.23;;
3563;SDS011;1796;52.388;13.096;2023-07-24T05:52:58;1.67;;;1.57;;
3563;SDS011;1796;52.388;13.096;2023-07-24T05:55:25;1.47;;;1.20;;
3563;SDS011;1796;52.388;13.096;2023-07-24T05:57:51;2.87;;;1.63;;
3563;SDS011;1796;52.388;13.096;2023-07-24T06:00:18;1.50;;;1.40;;
3563;SDS011;1796;52.388;13.096;2023-07-24T06:02:47;8.53;;;1.60;;
3563;SDS011;1796;52.388;13.096;2023-07-24T06:05:13;1.83;;;1.67;;
3563;SDS011;1796;52.388;13.096;2023-07-24T06:07:40;2.23;;;2.13;;
3563;SDS011;1796;52.388;13.096;2023-07-24T06:10:17;1.40;;;1.40;;
3563;SDS011;1796;52.388;13.096;2023-07-24T06:12:44;1.30;;;1.30;;
3563;SDS011;1796;52.388;13.096;2023-07-24T06:15:12;3.20;;;1.40;;
3563;SDS011;1796;52.388;13.096;2023-07-24T06:17:39;2.97;;;1.73;;
3563;SDS011;1796;52.388;13.096;2023-07-24T06:20:08;1.40;;;1.30;;
3563;SDS011;1796;52.388;13.096;2023-07-24T06:22:35;1.50;;;1.50;;
3563;SDS011;1796;52.388;13.096;2023-07-24T06:25:02;1.70;;;1.63;;
3563;SDS011;1796;52.388;13.096;2023-07-24T06:27:29;1.60;;;1.50;;
3563;SDS011;1796;52.388;13.096;2023-07-24T06:29:56;1.87;;;1.87;;
3563;SDS011;1796;52.388;13.096;2023-07-24T06:32:23;1.43;;;1.43;;
3563;SDS011;1796;52.388;13.096;2023-07-24T06:34:49;3.60;;;1.67;;
3563;SDS011;1796;52.388;13.096;2023-07-24T06:37:18;6.73;;;1.50;;
3563;SDS011;1796;52.388;13.096;2023-07-24T06:39:45;2.10;;;1.60;;
3563;SDS011;1796;52.388;13.096;2023-07-24T06:42:11;2.10;;;1.67;;
3563;SDS011;1796;52.388;13.096;2023-07-24T06:44:38;1.90;;;1.80;;
3563;SDS011;1796;52.388;13.096;2023-07-24T06:47:05;2.80;;;1.77;;
3563;SDS011;1796;52.388;13.096;2023-07-24T06:49:32;3.23;;;1.73;;
3563;SDS011;1796;52.388;13.096;2023-07-24T06:51:59;1.93;;;1.83;;
3563;SDS011;1796;52.388;13.096;2023-07-24T06:54:27;1.80;;;1.70;;
3563;SDS011;1796;52.388;13.096;2023-07-24T06:56:54;1.33;;;1.33;;
3563;SDS011;1796;52.388;13.096;2023-07-24T06:59:21;1.40;;;1.30;;
3563;SDS011;1796;52.388;13.096;2023-07-24T07:01:48;1.93;;;1.60;;
3563;SDS011;1796;52.388;13.096;2023-07-24T07:04:15;6.20;;;5.30;;
3563;SDS011;1796;52.388;13.096;2023-07-24T07:06:42;1.70;;;1.60;;
3563;SDS011;1796;52.388;13.096;2023-07-24T07:09:09;11.23;;;1.53;;
3563;SDS011;1796;52.388;13.096;2023-07-24T07:11:38;1.70;;;1.70;;
3563;SDS011;1796;52.388;13.096;2023-07-24T07:14:05;2.50;;;1.67;;
3563;SDS011;1796;52.388;13.096;2023-07-24T07:16:34;1.90;;;1.90;;
3563;SDS011;1796;52.388;13.096;2023-07-24T07:19:01;1.60;;;1.50;;
3563;SDS011;1796;52.388;13.096;2023-07-24T07:21:27;1.67;;;1.57;;
3563;SDS011;1796;52.388;13.096;2023-07-24T07:23:55;1.40;;;1.40;;
3563;SDS011;1796;52.388;13.096;2023-07-24T07:26:21;2.60;;;1.50;;
3563;SDS011;1796;52.388;13.096;2023-07-24T07:28:50;1.63;;;1.57;;
3563;SDS011;1796;52.388;13.096;2023-07-24T07:31:17;1.70;;;1.60;;
3563;SDS011;1796;52.388;13.096;2023-07-24T07:33:43;1.30;;;1.30;;
3563;SDS011;1796;52.388;13.096;2023-07-24T07:36:10;3.07;;;1.70;;
3563;SDS011;1796;52.388;13.096;2023-07-24T07:38:37;1.50;;;1.50;;
3563;SDS011;1796;52.388;13.096;2023-07-24T07:41:05;2.10;;;1.90;;
3563;SDS011;1796;52.388;13.096;2023-07-24T07:43:32;1.60;;;1.50;;
3563;SDS011;1796;52.388;13.096;2023-07-24T07:46:01;3.47;;;1.37;;
3563;SDS011;1796;52.388;13.096;2023-07-24T07:48:28;1.30;;;1.30;;
3563;SDS011;1796;52.388;13.096;2023-07-24T07:50:55;2.60;;;1.53;;
3563;SDS011;1796;52.388;13.096;2023-07-24T07:53:21;1.40;;;1.40;;
3563;SDS011;1796;52.388;13.096;2023-07-24T07:55:54;1.80;;;1.70;;
3563;SDS011;1796;52.388;13.096;2023-07-24T07:58:22;1.53;;;1.43;;
3563;SDS011;1796;52.388;13.096;2023-07-24T08:00:48;1.60;;;1.50;;
3563;SDS011;1796;52.388;13.096;2023-07-24T08:03:17;1.43;;;1.43;;
3563;SDS011;1796;52.388;13.096;2023-07-24T08:05:44;1.40;;;1.30;;
3563;SDS011;1796;52.388;13.096;2023-07-24T08:08:10;4.27;;;1.87;;
3563;SDS011;1796;52.388;13.096;2023-07-24T08:10:37;1.53;;;1.40;;
3563;SDS011;1796;52.388;13.096;2023-07-24T08:13:04;1.73;;;1.63;;
3563;SDS011;1796;52.388;13.096;2023-07-24T08:15:33;3.43;;;1.80;;
3563;SDS011;1796;52.388;13.096;2023-07-24T08:18:01;1.80;;;1.70;;
3563;SDS011;1796;52.388;13.096;2023-07-24T08:20:30;1.53;;;1.43;;
3563;SDS011;1796;52.388;13.096;2023-07-24T08:22:57;1.70;;;1.60;;
3563;SDS011;1796;52.388;13.096;2023-07-24T08:25:24;1.73;;;1.63;;
3563;SDS011;1796;52.388;13.096;2023-07-24T08:27:51;1.87;;;1.77;;
3563;SDS011;1796;52.388;13.096;2023-07-24T08:30:18;5.80;;;1.60;;
3563;SDS011;1796;52.388;13.096;2023-07-24T08:32:44;6.60;;;2.47;;
3563;SDS011;1796;52.388;13.096;2023-07-24T08:35:11;4.73;;;1.70;;
3563;SDS011;1796;52.388;13.096;2023-07-24T08:37:46;3.20;;;1.70;;
3563;SDS011;1796;52.388;13.096;2023-07-24T08:40:12;2.07;;;1.83;;
3563;SDS011;1796;52.388;13.096;2023-07-24T08:42:41;2.20;;;1.50;;
3563;SDS011;1796;52.388;13.096;2023-07-24T08:45:11;2.93;;;1.77;;
3563;SDS011;1796;52.388;13.096;2023-07-24T08:47:40;2.40;;;1.70;;
3563;SDS011;1796;52.388;13.096;2023-07-24T08:50:09;1.80;;;1.70;;
3563;SDS011;1796;52.388;13.096;2023-07-24T08:52:37;1.70;;;1.60;;
3563;SDS011;1796;52.388;13.096;2023-07-24T08:55:06;6.30;;;5.10;;
3563;SDS011;1796;52.388;13.096;2023-07-24T08:57:34;3.23;;;2.17;;
3563;SDS011;1796;52.388;13.096;2023-07-24T09:00:01;1.67;;;1.57;;
3563;SDS011;1796;52.388;13.096;2023-07-24T09:02:30;1.40;;;1.30;;
3563;SDS011;1796;52.388;13.096;2023-07-24T09:04:57;5.40;;;1.70;;
3563;SDS011;1796;52.388;13.096;2023-07-24T09:07:24;5.77;;;1.70;;
3563;SDS011;1796;52.388;13.096;2023-07-24T09:09:51;2.33;;;2.13;;
3563;SDS011;1796;52.388;13.096;2023-07-24T09:12:21;2.23;;;1.70;;
3563;SDS011;1796;52.388;13.096;2023-07-24T09:14:59;6.00;;;2.00;;
3563;SDS011;1796;52.388;13.096;2023-07-24T09:17:27;5.37;;;1.93;;
3563;SDS011;1796;52.388;13.096;2023-07-24T09:19:55;3.57;;;1.73;;
3563;SDS011;1796;52.388;13.096;2023-07-24T09:22:22;3.33;;;2.10;;
3563;SDS011;1796;52.388;13.096;2023-07-24T09:24:51;2.00;;;1.90;;
3563;SDS011;1796;52.388;13.096;2023-07-24T09:27:20;2.30;;;2.20;;
3563;SDS011;1796;52.388;13.096;2023-07-24T09:29:51;5.53;;;2.30;;
3563;SDS011;1796;52.388;13.096;2023-07-24T09:32:18;2.20;;;1.67;;
3563;SDS011;1796;52.388;13.096;2023-07-24T09:34:46;2.20;;;2.00;;
3563;SDS011;1796;52.388;13.096;2023-07-24T09:37:25;2.03;;;1.93;;
3563;SDS011;1796;52.388;13.096;2023-07-24T09:39:53;2.30;;;2.10;;
3563;SDS011;1796;52.388;13.096;2023-07-24T09:42:28;2.20;;;2.03;;
3563;SDS011;1796;52.388;13.096;2023-07-24T09:44:55;3.33;;;2.10;;
3563;SDS011;1796;52.388;13.096;2023-07-24T09:47:22;6.10;;;2.00;;
3563;SDS011;1796;52.388;13.096;2023-07-24T09:49:50;2.37;;;2.17;;
3563;SDS011;1796;52.388;13.096;2023-07-24T09:52:18;6.93;;;2.20;;
3563;SDS011;1796;52.388;13.096;2023-07-24T09:54:49;8.23;;;2.07;;
3563;SDS011;1796;52.388;13.096;2023-07-24T09:57:22;2.33;;;2.20;;
3563;SDS011;1796;52.388;13.096;2023-07-24T09:59:52;2.50;;;2.33;;
3563;SDS011;1796;52.388;13.096;2023-07-24T10:02:22;3.20;;;2.50;;
3563;SDS011;1796;52.388;13.096;2023-07-24T10:04:50;7.73;;;2.60;;
3563;SDS011;1796;52.388;13.096;2023-07-24T10:07:17;12.63;;;2.73;;
3563;SDS011;1796;52.388;13.096;2023-07-24T10:09:46;2.70;;;2.50;;
3563;SDS011;1796;52.388;13.096;2023-07-24T10:12:15;2.53;;;2.43;;
3563;SDS011;1796;52.388;13.096;2023-07-24T10:14:43;4.53;;;2.70;;
3563;SDS011;1796;52.388;13.096;2023-07-24T10:17:12;8.10;;;2.83;;
3563;SDS011;1796;52.388;13.096;2023-07-24T10:19:39;4.17;;;2.87;;
3563;SDS011;1796;52.388;13.096;2023-07-24T10:22:08;2.73;;;2.63;;
3563;SDS011;1796;52.388;13.096;2023-07-24T10:24:35;4.40;;;2.97;;
3563;SDS011;1796;52.388;13.096;2023-07-24T10:27:03;5.80;;;3.70;;
3563;SDS011;1796;52.388;13.096;2023-07-24T10:29:34;15.70;;;3.20;;
3563;SDS011;1796;52.388;13.096;2023-07-24T10:32:01;4.03;;;3.47;;
3563;SDS011;1796;52.388;13.096;2023-07-24T10:34:37;4.00;;;3.63;;
3563;SDS011;1796;52.388;13.096;2023-07-24T10:37:06;3.30;;;3.10;;
3563;SDS011;1796;52.388;13.096;2023-07-24T10:39:37;3.70;;;3.40;;
3563;SDS011;1796;52.388;13.096;2023-07-24T10:42:06;4.30;;;3.73;;
3563;SDS011;1796;52.388;13.096;2023-07-24T10:44:34;3.47;;;3.27;;
3563;SDS011;1796;52.388;13.096;2023-07-24T10:47:01;4.83;;;3.80;;
3563;SDS011;1796;52.388;13.096;2023-07-24T10:49:28;11.73;;;3.57;;
3563;SDS011;1796;52.388;13.096;2023-07-24T10:51:56;9.03;;;3.60;;
3563;SDS011;1796;52.388;13.096;2023-07-24T10:54:24;3.63;;;3.20;;
3563;SDS011;1796;52.388;13.096;2023-07-24T10:56:57;5.83;;;3.60;;
3563;SDS011;1796;52.388;13.096;2023-07-24T10:59:34;4.30;;;3.93;;
3563;SDS011;1796;52.388;13.096;2023-07-24T11:02:02;38.67;;;5.27;;
3563;SDS011;1796;52.388;13.096;2023-07-24T11:04:30;10.63;;;3.70;;
3563;SDS011;1796;52.388;13.096;2023-07-24T11:06:59;5.43;;;4.00;;
3563;SDS011;1796;52.388;13.096;2023-07-24T11:09:34;5.30;;;3.40;;
3563;SDS011;1796;52.388;13.096;2023-07-24T11:12:08;6.80;;;3.53;;
3563;SDS011;1796;52.388;13.096;2023-07-24T11:14:45;8.90;;;3.40;;
3563;SDS011;1796;52.388;13.096;2023-07-24T11:17:12;5.70;;;2.93;;
3563;SDS011;1796;52.388;13.096;2023-07-24T11:19:39;4.70;;;3.70;;
3563;SDS011;1796;52.388;13.096;2023-07-24T11:22:07;7.30;;;3.73;;
3563;SDS011;1796;52.388;13.096;2023-07-24T11:24:41;8.00;;;3.50;;
3563;SDS011;1796;52.388;13.096;2023-07-24T11:27:10;4.20;;;3.40;;
3563;SDS011;1796;52.388;13.096;2023-07-24T11:29:39;6.13;;;4.87;;
3563;SDS011;1796;52.388;13.096;2023-07-24T11:32:06;6.53;;;5.33;;
3563;SDS011;1796;52.388;13.096;2023-07-24T11:34:33;13.50;;;4.10;;
3563;SDS011;1796;52.388;13.096;2023-07-24T11:37:01;6.93;;;3.80;;
3563;SDS011;1796;52.388;13.096;2023-07-24T11:39:30;13.63;;;3.80;;
3563;SDS011;1796;52.388;13.096;2023-07-24T11:41:58;8.97;;;4.20;;
3563;SDS011;1796;52.388;13.096;2023-07-24T11:44:27;4.83;;;3.67;;
3563;SDS011;1796;52.388;13.096;2023-07-24T11:47:00;5.70;;;4.20;;
3563;SDS011;1796;52.388;13.096;2023-07-24T11:49:28;3.90;;;3.60;;
3563;SDS011;1796;52.388;13.096;2023-07-24T11:51:59;4.40;;;3.63;;
3563;SDS011;1796;52.388;13.096;2023-07-24T11:54:27;4.30;;;3.90;;
3563;SDS011;1796;52.388;13.096;2023-07-24T11:56:55;12.80;;;3.30;;
3563;SDS011;1796;52.388;13.096;2023-07-24T11:59:23;4.03;;;3.63;;
3563;SDS011;1796;52.388;13.096;2023-07-24T12:01:51;5.90;;;4.40;;
3563;SDS011;1796;52.388;13.096;2023-07-24T12:04:18;4.90;;;4.10;;
3563;SDS011;1796;52.388;13.096;2023-07-24T12:06:45;4.63;;;4.10;;
3563;SDS011;1796;52.388;13.096;2023-07-24T12:09:12;4.80;;;3.70;;
3563;SDS011;1796;52.388;13.096;2023-07-24T12:11:39;5.63;;;3.43;;
3563;SDS011;1796;52.388;13.096;2023-07-24T12:14:08;9.27;;;3.77;;
3563;SDS011;1796;52.388;13.096;2023-07-24T12:16:35;10.60;;;4.03;;
3563;SDS011;1796;52.388;13.096;2023-07-24T12:19:02;14.97;;;3.90;;
3563;SDS011;1796;52.388;13.096;2023-07-24T12:21:29;6.37;;;3.90;;
3563;SDS011;1796;52.388;13.096;2023-07-24T12:23:56;3.77;;;3.47;;
3563;SDS011;1796;52.388;13.096;2023-07-24T12:26:23;4.37;;;3.77;;
3563;SDS011;1796;52.388;13.096;2023-07-24T12:28:52;7.03;;;3.40;;
3563;SDS011;1796;52.388;13.096;2023-07-24T12:31:20;6.47;;;3.23;;
3563;SDS011;1796;52.388;13.096;2023-07-24T12:33:47;4.10;;;3.70;;
3563;SDS011;1796;52.388;13.096;2023-07-24T12:36:14;3.80;;;3.50;;
3563;SDS011;1796;52.388;13.096;2023-07-24T12:38:41;5.77;;;3.47;;
3563;SDS011;1796;52.388;13.096;2023-07-24T12:41:08;5.37;;;3.83;;
3563;SDS011;1796;52.388;13.096;2023-07-24T12:43:35;6.73;;;3.70;;
3563;SDS011;1796;52.388;13.096;2023-07-24T12:46:02;7.23;;;4.07;;
3563;SDS011;1796;52.388;13.096;2023-07-24T12:48:30;4.30;;;3.13;;
3563;SDS011;1796;52.388;13.096;2023-07-24T12:50:57;7.73;;;3.17;;
3563;SDS011;1796;52.388;13.096;2023-07-24T12:53:25;6.27;;;4.17;;
3563;SDS011;1796;52.388;13.096;2023-07-24T12:55:51;5.93;;;3.20;;
3563;SDS011;1796;52.388;13.096;2023-07-24T12:58:18;6.40;;;3.40;;
3563;SDS011;1796;52.388;13.096;2023-07-24T13:00:45;3.30;;;3.00;;
3563;SDS011;1796;52.388;13.096;2023-07-24T13:03:12;5.23;;;3.73;;
3563;SDS011;1796;52.388;13.096;2023-07-24T13:05:40;4.77;;;2.97;;
3563;SDS011;1796;52.388;13.096;2023-07-24T13:08:07;3.50;;;3.10;;
3563;SDS011;1796;52.388;13.096;2023-07-24T13:10:34;5.00;;;3.27;;
3563;SDS011;1796;52.388;13.096;2023-07-24T13:13:01;3.73;;;3.40;;
3563;SDS011;1796;52.388;13.096;2023-07-24T13:15:27;5.47;;;3.03;;
3563;SDS011;1796;52.388;13.096;2023-07-24T13:17:56;18.30;;;3.70;;
3563;SDS011;1796;52.388;13.096;2023-07-24T13:20:24;3.67;;;3.27;;
3563;SDS011;1796;52.388;13.096;2023-07-24T13:22:52;5.70;;;3.53;;
3563;SDS011;1796;52.388;13.096;2023-07-24T13:25:19;3.03;;;2.83;;
3563;SDS011;1796;52.388;13.096;2023-07-24T13:27:46;3.17;;;2.80;;
3563;SDS011;1796;52.388;13.096;2023-07-24T13:30:13;4.33;;;3.10;;
3563;SDS011;1796;52.388;13.096;2023-07-24T13:32:40;5.07;;;2.97;;
3563;SDS011;1796;52.388;13.096;2023-07-24T13:35:07;3.60;;;3.33;;
3563;SDS011;1796;52.388;13.096;2023-07-24T13:37:34;9.37;;;3.27;;
3563;SDS011;1796;52.388;13.096;2023-07-24T13:40:03;5.10;;;3.30;;
3563;SDS011;1796;52.388;13.096;2023-07-24T13:42:30;5.37;;;3.00;;
3563;SDS011;1796;52.388;13.096;2023-07-24T13:44:57;2.50;;;2.40;;
3563;SDS011;1796;52.388;13.096;2023-07-24T13:47:24;2.73;;;2.63;;
3563;SDS011;1796;52.388;13.096;2023-07-24T13:49:50;2.90;;;2.63;;
3563;SDS011;1796;52.388;13.096;2023-07-24T13:52:20;4.00;;;2.90;;
3563;SDS011;1796;52.388;13.096;2023-07-24T13:54:47;28.23;;;2.90;;
3563;SDS011;1796;52.388;13.096;2023-07-24T13:57:16;6.10;;;3.10;;
3563;SDS011;1796;52.388;13.096;2023-07-24T13:59:43;9.50;;;2.67;;
3563;SDS011;1796;52.388;13.096;2023-07-24T14:02:10;3.13;;;2.93;;
3563;SDS011;1796;52.388;13.096;2023-07-24T14:04:37;4.13;;;3.00;;
3563;SDS011;1796;52.388;13.096;2023-07-24T14:07:04;5.13;;;2.70;;
3563;SDS011;1796;52.388;13.096;2023-07-24T14:09:31;2.90;;;2.70;;
3563;SDS011;1796;52.388;13.096;2023-07-24T14:12:02;3.37;;;3.07;;
3563;SDS011;1796;52.388;13.096;2023-07-24T14:14:30;4.87;;;3.40;;
3563;SDS011;1796;52.388;13.096;2023-07-24T14:16:57;3.73;;;3.10;;
3563;SDS011;1796;52.388;13.096;2023-07-24T14:19:24;5.93;;;3.17;;
3563;SDS011;1796;52.388;13.096;2023-07-24T14:21:51;5.07;;;3.30;;
3563;SDS011;1796;52.388;13.096;2023-07-24T14:24:18;3.53;;;3.03;;
3563;SDS011;1796;52.388;13.096;2023-07-24T14:26:45;3.80;;;3.50;;
3563;SDS011;1796;52.388;13.096;2023-07-24T14:29:12;4.30;;;3.80;;
3563;SDS011;1796;52.388;13.096;2023-07-24T14:31:43;8.83;;;4.07;;
3563;SDS011;1796;52.388;13.096;2023-07-24T14:34:13;4.50;;;3.90;;
3563;SDS011;1796;52.388;13.096;2023-07-24T14:36:39;4.07;;;3.67;;
3563;SDS011;1796;52.388;13.096;2023-07-24T14:39:06;4.50;;;3.97;;
3563;SDS011;1796;52.388;13.096;2023-07-24T14:41:33;5.80;;;4.30;;
3563;SDS011;1796;52.388;13.096;2023-07-24T14:44:00;11.80;;;8.57;;
3563;SDS011;1796;52.388;13.096;2023-07-24T14:46:27;4.67;;;4.27;;
3563;SDS011;1796;52.388;13.096;2023-07-24T14:48:55;6.53;;;4.70;;
3563;SDS011;1796;52.388;13.096;2023-07-24T14:51:23;5.20;;;4.30;;
3563;SDS011;1796;52.388;13.096;2023-07-24T14:53:51;5.20;;;4.50;;
3563;SDS011;1796;52.388;13.096;2023-07-24T14:56:18;4.57;;;4.00;;
3563;SDS011;1796;52.388;13.096;2023-07-24T14:58:46;6.57;;;3.63;;
3563;SDS011;1796;52.388;13.096;2023-07-24T15:01:13;5.17;;;3.47;;
3563;SDS011;1796;52.388;13.096;2023-07-24T15:03:39;4.33;;;3.93;;